Time;durP1;ratioP1;P1;durP2;ratioP2;P2;SDS_P1;SDS_P2;PMS_P1;PMS_P2;Temp;Humidity;BMP_temperature;BMP_pressure;BME280_temperature;BME280_humidity;BME280_pressure;Samples;Min_cycle;Max_cycle;Signal;HPM_P1;HPM_P2
2021/12/09 00:00:53;;;;;;;5.03;4.53;;;;;;;1.04;95.88;99876.46;1791601;79;20985;-62
2021/12/09 00:03:13;;;;;;;5.83;4.63;;;;;;;1.00;95.47;99876.39;1775900;79;20985;-62
2021/12/09 00:05:44;;;;;;;8.00;5.53;;;;;;;0.94;95.26;99871.22;1783798;79;21021;-62
2021/12/09 00:08:09;;;;;;;8.10;6.23;;;;;;;0.90;95.52;99878.17;1788899;79;21465;-61
2021/12/09 00:10:39;;;;;;;6.67;5.37;;;;;;;0.89;95.83;99873.91;1788050;80;21038;-61
2021/12/09 00:13:07;;;;;;;7.47;6.47;;;;;;;0.91;96.08;99881.98;1760561;79;21056;-62
2021/12/09 00:15:34;;;;;;;9.13;6.70;;;;;;;0.93;95.98;99884.47;1765824;80;21047;-61
2021/12/09 00:18:01;;;;;;;7.87;5.77;;;;;;;0.95;96.12;99883.35;1756176;80;21037;-61
2021/12/09 00:20:27;;;;;;;7.17;6.22;;;;;;;1.01;96.13;99889.03;1733096;81;21038;-62
2021/12/09 00:22:53;;;;;;;6.20;5.10;;;;;;;1.02;95.93;99887.58;1733177;81;21027;-62
2021/12/09 00:25:19;;;;;;;5.60;5.00;;;;;;;0.99;95.51;99885.71;1714319;81;21020;-62
2021/12/09 00:27:46;;;;;;;6.53;5.47;;;;;;;0.97;95.53;99893.72;1720248;81;21497;-63
2021/12/09 00:30:12;;;;;;;7.67;6.72;;;;;;;0.94;95.37;99902.70;1710449;82;21687;-60
2021/12/09 00:32:41;;;;;;;5.97;5.40;;;;;;;0.93;95.59;99904.97;1705612;82;21556;-61
2021/12/09 00:35:09;;;;;;;6.73;5.23;;;;;;;0.97;95.76;99906.84;1715646;82;21188;-61
2021/12/09 00:40:05;;;;;;;4.45;4.05;;;;;;;0.96;95.34;99906.02;1719567;82;21002;-62
2021/12/09 00:42:32;;;;;;;5.20;4.70;;;;;;;0.92;95.29;99904.64;1707607;82;21334;-61
2021/12/09 00:44:58;;;;;;;6.10;5.10;;;;;;;0.90;95.33;99910.97;1697134;83;21550;-62
2021/12/09 00:47:25;;;;;;;6.47;4.65;;;;;;;0.86;95.42;99910.41;1722660;81;21045;-61
2021/12/09 00:49:55;;;;;;;6.47;5.80;;;;;;;0.83;95.47;99914.64;1704884;83;21051;-61
2021/12/09 00:52:22;;;;;;;8.03;5.83;;;;;;;0.81;95.59;99917.03;1700832;82;21094;-61
2021/12/09 00:54:48;;;;;;;5.83;4.80;;;;;;;0.78;95.72;99911.58;1703899;82;20989;-61
2021/12/09 00:57:14;;;;;;;5.25;4.75;;;;;;;0.76;95.70;99909.58;1696210;82;21468;-60
2021/12/09 00:59:40;;;;;;;6.15;5.47;;;;;;;0.74;95.79;99910.20;1691797;83;21037;-60
2021/12/09 01:02:06;;;;;;;8.25;7.35;;;;;;;0.71;95.95;99909.97;1697665;84;21097;-61
2021/12/09 01:04:32;;;;;;;6.53;5.90;;;;;;;0.72;96.15;99912.13;1721400;82;21029;-64
2021/12/09 01:06:58;;;;;;;9.03;6.00;;;;;;;0.75;96.37;99912.70;1706172;83;22202;-61
2021/12/09 01:09:25;;;;;;;13.70;4.40;;;;;;;0.80;96.25;99916.70;1722052;83;21076;-61
2021/12/09 01:11:51;;;;;;;10.53;6.25;;;;;;;0.76;95.99;99909.58;1715892;83;21034;-60
2021/12/09 01:14:18;;;;;;;5.60;4.37;;;;;;;0.78;96.10;99916.34;1707568;83;21021;-61
2021/12/09 01:16:45;;;;;;;6.87;6.17;;;;;;;0.80;96.28;99905.72;1721812;83;21049;-60
2021/12/09 01:19:12;;;;;;;7.67;5.40;;;;;;;0.85;96.41;99911.85;1713494;83;21017;-60
2021/12/09 01:21:39;;;;;;;7.62;6.47;;;;;;;0.87;96.11;99909.45;1709873;83;21058;-62
2021/12/09 01:24:06;;;;;;;9.00;6.62;;;;;;;0.87;96.09;99912.58;1713126;82;21089;-61
2021/12/09 01:26:34;;;;;;;6.13;5.53;;;;;;;0.89;96.16;99915.89;1705341;82;21032;-61
2021/12/09 01:29:10;;;;;;;7.57;5.87;;;;;;;0.92;96.04;99914.28;1715953;82;21486;-60
2021/12/09 01:31:35;;;;;;;6.87;6.17;;;;;;;0.90;95.92;99909.17;1702868;82;21043;-62
2021/12/09 01:34:02;;;;;;;8.57;6.37;;;;;;;0.93;95.99;99912.84;1718671;82;21045;-62
2021/12/09 01:36:29;;;;;;;6.83;5.70;;;;;;;0.98;96.09;99909.83;1715755;82;21031;-61
2021/12/09 01:38:56;;;;;;;6.83;6.13;;;;;;;1.02;95.97;99910.35;1710311;82;21143;-62
2021/12/09 01:41:23;;;;;;;7.15;6.42;;;;;;;1.00;95.54;99919.70;1715044;82;21074;-62
2021/12/09 01:43:50;;;;;;;6.63;6.03;;;;;;;0.97;95.53;99923.41;1724125;82;21023;-61
2021/12/09 01:46:20;;;;;;;4.53;3.93;;;;;;;0.97;95.70;99922.09;1714110;82;21001;-60
2021/12/09 01:48:50;;;;;;;6.30;5.63;;;;;;;0.95;95.35;99924.03;1720718;81;20987;-61
2021/12/09 01:51:18;;;;;;;7.23;6.53;;;;;;;0.96;95.42;99929.64;1705420;83;20991;-61
2021/12/09 01:53:46;;;;;;;7.53;5.53;;;;;;;0.98;95.65;99928.20;1715031;83;21813;-60
2021/12/09 01:56:21;;;;;;;6.17;5.40;;;;;;;1.03;95.78;99931.70;1714036;82;21060;-62
2021/12/09 01:58:55;;;;;;;7.03;4.40;;;;;;;1.04;95.83;99930.27;1715890;82;21093;-60
2021/12/09 02:01:22;;;;;;;7.43;5.90;;;;;;;1.10;95.58;99926.27;1700776;83;21046;-61
2021/12/09 02:03:50;;;;;;;6.33;5.40;;;;;;;1.09;95.37;99927.22;1696613;83;21597;-61
2021/12/09 02:06:19;;;;;;;5.37;4.20;;;;;;;1.10;95.51;99923.64;1729942;81;21046;-61
2021/12/09 02:08:46;;;;;;;5.43;4.43;;;;;;;1.11;95.16;99929.22;1703222;83;21506;-61
2021/12/09 02:11:12;;;;;;;4.73;4.33;;;;;;;1.04;94.51;99933.38;1715189;81;21565;-62
2021/12/09 02:13:39;;;;;;;6.08;4.95;;;;;;;0.95;94.59;99931.08;1704561;83;21598;-62
2021/12/09 02:16:09;;;;;;;5.47;4.97;;;;;;;0.89;95.01;99931.63;1711245;82;21070;-61
2021/12/09 02:18:36;;;;;;;4.30;3.23;;;;;;;0.90;95.34;99928.84;1712668;82;21509;-61
2021/12/09 02:21:19;;;;;;;4.62;4.22;;;;;;;0.90;95.28;99933.28;1715938;82;22334;-62
2021/12/09 02:23:49;;;;;;;5.43;4.90;;;;;;;0.87;95.25;99939.63;1720365;82;21120;-62
2021/12/09 02:26:21;;;;;;;3.77;3.20;;;;;;;0.85;95.64;99945.50;1703230;83;21032;-62
2021/12/09 02:28:49;;;;;;;4.70;4.30;;;;;;;0.85;95.56;99949.44;1690422;83;21054;-60
2021/12/09 02:31:16;;;;;;;5.47;4.93;;;;;;;0.85;95.62;99946.81;1692838;83;21036;-60
2021/12/09 02:33:42;;;;;;;4.37;3.90;;;;;;;0.87;95.84;99951.44;1699752;83;21521;-60
2021/12/09 02:36:08;;;;;;;5.35;3.92;;;;;;;0.92;95.96;99953.19;1734150;81;21041;-61
2021/12/09 02:38:42;;;;;;;4.90;4.25;;;;;;;0.97;95.94;99955.39;1692154;84;21045;-61
2021/12/09 02:41:05;;;;;;;4.67;3.70;;;;;;;0.98;95.66;99961.00;1677732;84;21026;-60
2021/12/09 02:43:31;;;;;;;4.70;4.20;;;;;;;0.99;95.73;99959.20;1683012;84;21013;-61
2021/12/09 02:45:59;;;;;;;3.77;3.47;;;;;;;1.00;95.59;99962.16;1658627;83;21081;-62
2021/12/09 02:48:26;;;;;;;5.43;4.47;;;;;;;1.00;95.49;99963.47;1674480;84;21069;-60
2021/12/09 02:50:54;;;;;;;3.05;2.85;;;;;;;1.02;95.61;99968.09;1680344;84;21572;-61
2021/12/09 02:53:20;;;;;;;4.10;3.70;;;;;;;1.05;95.66;99966.52;1676487;84;21004;-61
2021/12/09 02:55:47;;;;;;;4.15;3.80;;;;;;;1.09;95.57;99962.66;1685085;83;21459;-62
2021/12/09 02:58:13;;;;;;;;;;;;;;;1.11;95.57;99963.34;1716261;83;21085;-62
2021/12/09 03:01:01;;;;;;;4.03;3.67;;;;;;;1.09;95.33;99964.82;1714710;83;20156;-62
2021/12/09 03:03:29;;;;;;;3.97;3.37;;;;;;;1.04;95.45;99964.39;1712571;82;21062;-61
2021/12/09 03:05:57;;;;;;;4.00;3.67;;;;;;;1.02;95.32;99972.03;1711397;82;21084;-62
2021/12/09 03:08:36;;;;;;;3.60;3.30;;;;;;;1.01;95.43;99968.59;1714399;82;20985;-61
2021/12/09 03:11:11;;;;;;;4.60;3.80;;;;;;;0.99;94.78;99973.14;1700889;82;21364;-62
2021/12/09 03:13:40;;;;;;;5.03;4.50;;;;;;;0.88;94.76;99976.70;1687142;84;20991;-62
2021/12/09 03:16:10;;;;;;;4.90;4.33;;;;;;;0.15;95.13;99852.83;1688821;83;21042;-61
2021/12/09 03:18:47;;;;;;;4.90;4.27;;;;;;;0.88;95.39;99978.51;1693562;83;21564;-62
2021/12/09 03:21:25;;;;;;;5.27;4.50;;;;;;;0.88;95.58;99972.77;1696112;83;21010;-62
2021/12/09 03:23:55;;;;;;;5.27;4.30;;;;;;;0.90;95.72;99972.15;1689131;84;21523;-62
2021/12/09 03:26:29;;;;;;;5.53;4.93;;;;;;;0.93;95.86;99975.83;1686306;84;20959;-62
2021/12/09 03:29:04;;;;;;;5.43;4.93;;;;;;;0.94;95.82;99970.94;1683238;84;21003;-61
2021/12/09 03:31:32;;;;;;;5.87;5.20;;;;;;;1.00;95.86;99979.21;1684240;83;21069;-62
2021/12/09 03:33:59;;;;;;;5.27;4.43;;;;;;;1.03;95.86;99984.20;1702454;83;20994;-62
2021/12/09 03:36:28;;;;;;;8.63;5.73;;;;;;;1.04;95.81;99985.39;1731487;83;21021;-60
2021/12/09 03:38:57;;;;;;;5.20;4.70;;;;;;;1.08;95.87;99984.14;1718483;83;21101;-60
2021/12/09 03:41:24;;;;;;;5.27;4.77;;;;;;;1.12;95.84;99982.91;1732248;83;21462;-62
2021/12/09 03:43:50;;;;;;;4.33;3.93;;;;;;;1.16;95.75;99984.28;1734256;82;21010;-60
2021/12/09 03:46:20;;;;;;;6.65;5.40;;;;;;;1.18;95.59;99984.64;1711979;83;21477;-61
2021/12/09 03:48:47;;;;;;;5.10;4.70;;;;;;;1.20;95.58;99985.34;1688079;84;21002;-62
2021/12/09 03:51:15;;;;;;;7.70;6.70;;;;;;;1.19;95.42;99987.14;1706287;82;21120;-60
2021/12/09 03:53:41;;;;;;;6.35;5.75;;;;;;;1.19;95.34;99979.27;1696700;83;20994;-61
2021/12/09 03:56:07;;;;;;;6.90;6.33;;;;;;;1.21;95.42;99978.64;1705809;82;21638;-61
2021/12/09 03:58:33;;;;;;;7.17;5.83;;;;;;;1.22;95.44;99975.52;1712964;83;21009;-61
2021/12/09 04:01:00;;;;;;;8.07;6.43;;;;;;;1.24;95.44;99980.97;1688018;83;20977;-61
2021/12/09 04:03:27;;;;;;;7.58;5.35;;;;;;;1.25;95.39;99981.33;1695605;83;21042;-61
2021/12/09 04:05:54;;;;;;;9.17;7.50;;;;;;;1.23;95.15;99983.27;1708493;83;21196;-61
2021/12/09 04:08:21;;;;;;;9.60;7.35;;;;;;;1.21;95.18;99993.58;1725368;82;21018;-61
2021/12/09 04:10:50;;;;;;;9.10;7.07;;;;;;;1.21;95.32;99997.02;1696068;83;21018;-61
2021/12/09 04:13:18;;;;;;;8.13;6.93;;;;;;;1.22;95.16;99997.84;1704667;82;20970;-62
2021/12/09 04:15:45;;;;;;;8.00;7.20;;;;;;;1.20;95.14;99999.77;1702696;83;21045;-62
2021/12/09 04:18:12;;;;;;;7.30;5.37;;;;;;;1.22;95.31;99993.91;1703238;83;21010;-61
2021/12/09 04:20:38;;;;;;;;;;;;;;;1.23;94.88;99990.33;1704312;83;21550;-63
2021/12/09 04:23:06;;;;;;;10.27;9.17;;;;;;;1.16;94.90;99996.09;1702336;83;20396;-61
2021/12/09 04:25:35;;;;;;;7.10;6.37;;;;;;;1.09;95.31;99994.16;1702675;83;21017;-62
2021/12/09 04:28:02;;;;;;;6.30;5.57;;;;;;;1.07;95.05;99994.77;1698510;83;21020;-63
2021/12/09 04:30:29;;;;;;;;;;;;;;;1.04;94.94;99992.44;1698094;83;21560;-62
2021/12/09 04:32:56;;;;;;;10.70;8.15;;;;;;;1.01;95.07;100001.39;1712116;82;20160;-64
2021/12/09 04:35:23;;;;;;;10.10;6.70;;;;;;;0.94;95.38;100000.27;1675681;84;21070;-61
2021/12/09 04:37:50;;;;;;;7.83;6.07;;;;;;;0.96;95.58;100002.27;1705720;82;21553;-62
2021/12/09 04:40:16;;;;;;;10.28;9.13;;;;;;;0.95;95.51;100006.70;1705664;82;21815;-63
2021/12/09 04:42:44;;;;;;;12.98;9.55;;;;;;;0.94;95.48;100007.68;1680714;82;21125;-62
2021/12/09 04:45:11;;;;;;;10.20;8.73;;;;;;;1.00;95.78;100011.56;1681503;83;21036;-62
2021/12/09 04:47:40;;;;;;;13.97;9.70;;;;;;;1.07;95.94;100010.52;1688687;83;20976;-63
2021/12/09 04:50:08;;;;;;;12.33;9.13;;;;;;;1.13;95.93;100016.53;1686867;83;21159;-63
2021/12/09 04:52:35;;;;;;;8.37;7.37;;;;;;;1.16;95.83;100011.03;1719416;82;21594;-62
2021/12/09 04:55:00;;;;;;;9.70;8.60;;;;;;;1.19;95.56;100015.16;1693235;83;21051;-61
2021/12/09 04:57:27;;;;;;;9.88;7.72;;;;;;;1.14;95.37;100021.66;1684927;83;21098;-62
2021/12/09 04:59:53;;;;;;;9.73;7.40;;;;;;;1.15;95.50;100019.89;1705385;83;21000;-62
2021/12/09 05:02:31;;;;;;;11.83;8.20;;;;;;;1.13;95.16;100029.20;1658603;85;21485;-60
2021/12/09 05:04:48;;;;;;;9.43;8.43;;;;;;;1.11;95.14;100028.97;1650255;85;21021;-62
2021/12/09 05:07:14;;;;;;;8.95;7.75;;;;;;;1.09;95.37;100037.00;1679105;85;21510;-61
2021/12/09 05:09:49;;;;;;;10.03;7.17;;;;;;;1.10;95.26;100032.58;1683111;83;21459;-62
2021/12/09 05:12:11;;;;;;;7.03;6.00;;;;;;;1.07;95.12;100034.14;1664914;83;22138;-63
2021/12/09 05:14:38;;;;;;;7.90;6.63;;;;;;;1.03;95.12;100039.33;1646866;86;21537;-62
2021/12/09 05:17:04;;;;;;;6.75;6.05;;;;;;;1.00;95.08;100045.68;1643367;86;21052;-62
2021/12/09 05:19:30;;;;;;;11.20;8.58;;;;;;;0.97;95.27;100044.13;1621667;87;21052;-73
2021/12/09 05:21:57;;;;;;;10.13;8.10;;;;;;;0.96;95.45;100047.74;1648214;86;21124;-62
2021/12/09 05:24:23;;;;;;;9.03;8.08;;;;;;;0.99;95.75;100045.81;1644942;84;21034;-61
2021/12/09 05:26:52;;;;;;;11.22;7.65;;;;;;;1.07;95.93;100052.03;1672959;84;21065;-62
2021/12/09 05:29:28;;;;;;;7.97;7.17;;;;;;;1.06;95.65;100048.25;1717862;83;21106;-61
2021/12/09 05:32:10;;;;;;;9.90;8.47;;;;;;;1.08;95.84;100056.83;1708662;83;21140;-62
2021/12/09 05:34:47;;;;;;;11.03;9.40;;;;;;;1.14;95.94;100056.28;1694254;83;21460;-63
2021/12/09 05:37:18;;;;;;;6.80;6.00;;;;;;;1.22;96.01;100055.60;1706050;83;21020;-64
2021/12/09 05:39:47;;;;;;;8.20;6.90;;;;;;;1.24;95.27;100062.86;1705160;83;21005;-62
2021/12/09 05:42:16;;;;;;;10.17;7.50;;;;;;;1.18;95.23;100066.85;1703722;83;21526;-62
2021/12/09 05:44:44;;;;;;;8.70;7.90;;;;;;;1.15;94.98;100070.59;1710967;82;21008;-62
2021/12/09 05:47:12;;;;;;;6.80;5.97;;;;;;;1.14;95.25;100068.91;1695902;83;21071;-67
2021/12/09 05:49:43;;;;;;;8.47;6.60;;;;;;;1.16;95.34;100068.78;1701818;82;21014;-69
2021/12/09 05:52:10;;;;;;;7.20;6.37;;;;;;;1.16;95.35;100074.86;1686145;82;21085;-70
2021/12/09 05:54:37;;;;;;;11.73;6.87;;;;;;;1.17;95.22;100080.96;1705168;83;21105;-66
2021/12/09 05:57:06;;;;;;;7.70;5.70;;;;;;;1.15;95.26;100081.58;1706034;83;21519;-65
2021/12/09 05:59:38;;;;;;;6.20;5.60;;;;;;;1.12;95.34;100079.21;1705834;83;21053;-66
2021/12/09 06:02:05;;;;;;;6.23;5.50;;;;;;;1.07;95.19;100083.53;1708104;82;21033;-68
2021/12/09 06:04:31;;;;;;;11.83;8.18;;;;;;;1.04;95.33;100081.69;1706458;82;21651;-71
2021/12/09 06:07:00;;;;;;;11.33;7.87;;;;;;;1.05;95.60;100084.64;1707727;82;21027;-69
2021/12/09 06:09:26;;;;;;;9.15;8.23;;;;;;;1.10;95.87;100091.16;1704516;82;21553;-68
2021/12/09 06:11:55;;;;;;;6.63;5.67;;;;;;;1.17;96.04;100094.09;1708706;82;20982;-67
2021/12/09 06:14:21;;;;;;;9.23;7.70;;;;;;;1.22;95.87;100103.69;1703946;84;21086;-67
2021/12/09 06:16:47;;;;;;;6.92;5.85;;;;;;;1.21;95.36;100108.61;1664866;84;21034;-68
2021/12/09 06:19:14;;;;;;;11.53;7.85;;;;;;;1.18;95.34;100111.48;1694569;84;21034;-69
2021/12/09 06:21:41;;;;;;;10.77;9.23;;;;;;;1.19;95.46;100112.30;1656774;85;21034;-68
2021/12/09 06:24:07;;;;;;;15.98;10.08;;;;;;;1.22;95.79;100122.06;1701795;84;21033;-67
2021/12/09 06:26:34;;;;;;;16.20;11.07;;;;;;;1.27;95.91;100122.50;1702882;84;21002;-72
2021/12/09 06:29:01;;;;;;;14.47;12.03;;;;;;;1.30;95.61;100132.75;1690951;84;21028;-66
2021/12/09 06:31:29;;;;;;;17.03;12.87;;;;;;;1.31;95.67;100130.45;1687796;83;21093;-70
2021/12/09 06:33:59;;;;;;;15.73;11.63;;;;;;;1.34;95.80;100132.83;1672921;84;21005;-70
2021/12/09 06:36:25;;;;;;;14.17;11.50;;;;;;;1.40;95.79;100133.27;1687085;84;21030;-70
2021/12/09 06:38:51;;;;;;;10.32;8.65;;;;;;;1.24;95.73;100107.00;1714384;82;21131;-67
2021/12/09 06:41:18;;;;;;;12.33;10.18;;;;;;;1.44;95.14;100134.16;1708692;83;20994;-68
2021/12/09 06:43:45;;;;;;;10.18;8.08;;;;;;;1.41;95.03;100138.36;1673827;84;21498;-67
2021/12/09 06:46:12;;;;;;;12.83;9.37;;;;;;;1.38;94.99;100140.45;1724495;81;21066;-67
2021/12/09 06:48:40;;;;;;;15.20;10.40;;;;;;;1.36;95.31;100138.77;1700338;83;21160;-67
2021/12/09 06:51:07;;;;;;;11.60;8.30;;;;;;;1.43;95.62;100145.66;1717262;83;21042;-70
2021/12/09 06:53:36;;;;;;;11.00;8.43;;;;;;;1.49;95.60;100148.22;1709188;82;21576;-68
2021/12/09 06:56:05;;;;;;;10.30;8.87;;;;;;;1.50;95.55;100147.24;1709855;82;21041;-70
2021/12/09 06:58:32;;;;;;;8.17;6.90;;;;;;;1.49;95.05;100148.22;1700948;82;21129;-70
2021/12/09 07:01:00;;;;;;;;;;;;;;;1.45;94.87;100156.00;1704779;82;22015;-73
2021/12/09 07:03:27;;;;;;;14.10;9.83;;;;;;;1.42;94.87;100154.97;1706388;82;20127;-73
2021/12/09 07:05:54;;;;;;;12.13;8.67;;;;;;;1.37;95.20;100160.61;1692603;82;21485;-72
2021/12/09 07:08:21;;;;;;;12.60;9.67;;;;;;;1.40;95.51;100160.35;1708768;82;20967;-73
2021/12/09 07:10:48;;;;;;;;;;;;;;;1.46;95.58;100161.61;1705366;82;21001;-73
2021/12/09 07:13:15;;;;;;;13.50;8.00;;;;;;;1.52;95.69;100167.15;1683325;83;20095;-73
2021/12/09 07:15:41;;;;;;;15.73;9.70;;;;;;;1.50;95.58;100161.20;1692611;83;21537;-72
2021/12/09 07:18:08;;;;;;;14.95;10.75;;;;;;;1.49;95.52;100166.13;1702069;83;21048;-72
2021/12/09 07:20:34;;;;;;;11.75;8.68;;;;;;;1.54;95.57;100168.33;1693119;83;21048;-73
2021/12/09 07:23:01;;;;;;;9.20;7.62;;;;;;;1.48;94.79;100167.56;1684430;83;21019;-73
2021/12/09 07:25:28;;;;;;;;;;;;;;;1.39;94.79;100174.92;1688293;84;21018;-68
2021/12/09 07:27:54;;;;;;;15.83;7.17;;;;;;;1.34;95.05;100172.22;1681691;83;20135;-72
2021/12/09 07:30:24;;;;;;;11.07;7.80;;;;;;;1.29;95.44;100173.09;1713839;83;21095;-72
2021/12/09 07:32:51;;;;;;;15.03;10.53;;;;;;;1.26;95.38;100179.09;1717632;82;21495;-72
2021/12/09 07:35:18;;;;;;;15.83;9.78;;;;;;;1.24;95.55;100183.15;1706310;82;21687;-73
2021/12/09 07:37:45;;;;;;;13.57;8.93;;;;;;;1.29;95.86;100179.66;1715497;82;20992;-73
2021/12/09 07:40:16;;;;;;;13.70;10.07;;;;;;;1.36;96.06;100177.34;1696271;83;21038;-73
2021/12/09 07:42:43;;;;;;;13.47;9.60;;;;;;;1.42;96.07;100187.31;1709886;82;21023;-74
2021/12/09 07:45:11;;;;;;;15.43;9.97;;;;;;;1.47;96.08;100190.38;1710569;82;21032;-72
2021/12/09 07:47:39;;;;;;;16.37;10.53;;;;;;;1.55;96.09;100197.59;1716564;82;21571;-73
2021/12/09 07:50:08;;;;;;;14.20;9.33;;;;;;;1.57;95.72;100202.23;1712178;82;21105;-73
2021/12/09 07:52:35;;;;;;;15.87;11.03;;;;;;;1.57;95.72;100200.09;1713948;82;21079;-74
2021/12/09 07:55:02;;;;;;;15.10;10.47;;;;;;;1.60;95.76;100192.78;1712768;82;20991;-73
2021/12/09 07:57:31;;;;;;;11.90;9.80;;;;;;;1.64;95.75;100201.20;1708190;82;21064;-72
2021/12/09 07:59:57;;;;;;;14.93;10.17;;;;;;;1.66;95.63;100196.17;1691613;83;21595;-72
2021/12/09 08:02:23;;;;;;;;;;;;;;;1.66;95.23;100202.74;1685282;83;21026;-73
2021/12/09 08:04:52;;;;;;;13.87;11.03;;;;;;;1.61;94.88;100199.67;1709341;82;20159;-72
2021/12/09 08:07:18;;;;;;;18.17;11.93;;;;;;;1.54;95.30;100201.17;1679907;83;21045;-73
2021/12/09 08:09:45;;;;;;;10.82;9.00;;;;;;;1.58;95.63;100199.11;1694556;82;21145;-73
2021/12/09 08:12:11;;;;;;;16.23;10.48;;;;;;;1.58;95.26;100207.81;1713263;82;21563;-73
2021/12/09 08:14:39;;;;;;;13.13;10.03;;;;;;;1.57;95.24;100207.97;1710362;82;21098;-73
2021/12/09 08:17:12;;;;;;;11.43;9.63;;;;;;;1.59;95.42;100210.80;1702685;82;21065;-73
2021/12/09 08:19:35;;;;;;;13.93;10.27;;;;;;;1.61;95.46;100215.44;1705427;82;21125;-73
2021/12/09 08:22:02;;;;;;;13.53;9.88;;;;;;;1.62;95.52;100211.86;1677561;82;21046;-73
2021/12/09 08:24:28;;;;;;;12.83;9.23;;;;;;;1.64;95.47;100208.62;1703162;82;21041;-73
2021/12/09 08:26:54;;;;;;;13.60;9.98;;;;;;;1.61;95.11;100212.81;1706487;82;21073;-72
2021/12/09 08:29:20;;;;;;;14.63;10.90;;;;;;;1.59;95.20;100214.74;1702514;83;21087;-73
2021/12/09 08:31:46;;;;;;;15.72;9.93;;;;;;;1.59;95.38;100220.00;1707683;82;20997;-73
2021/12/09 08:34:13;;;;;;;13.30;9.23;;;;;;;1.59;95.52;100221.31;1710307;81;21140;-73
2021/12/09 08:36:39;;;;;;;13.48;9.13;;;;;;;1.62;95.58;100218.44;1709207;82;21107;-72
2021/12/09 08:39:06;;;;;;;15.08;9.35;;;;;;;1.59;95.18;100214.74;1689759;83;21264;-74
2021/12/09 08:41:32;;;;;;;13.47;9.67;;;;;;;1.36;94.96;100186.05;1687280;83;21499;-73
2021/12/09 08:43:59;;;;;;;;;;;;;;;1.51;95.18;100219.84;1693112;83;21613;-72
2021/12/09 08:46:26;;;;;;;16.23;11.57;;;;;;;1.53;95.46;100220.54;1695339;83;20561;-72
2021/12/09 08:48:53;;;;;;;17.57;10.70;;;;;;;1.53;95.81;100221.36;1719683;81;21115;-72
2021/12/09 08:51:19;;;;;;;15.40;9.83;;;;;;;1.54;95.48;100216.94;1730365;81;21109;-67
2021/12/09 08:53:46;;;;;;;19.23;12.00;;;;;;;1.51;95.40;100218.04;1746521;81;21581;-67
2021/12/09 08:56:13;;;;;;;16.27;10.40;;;;;;;1.51;95.65;100222.47;1744244;81;21035;-67
2021/12/09 08:58:39;;;;;;;18.75;11.75;;;;;;;1.55;95.85;100221.23;1729856;82;21075;-66
2021/12/09 09:01:11;;;;;;;12.88;9.58;;;;;;;1.60;95.91;100221.68;1730996;81;21062;-66
2021/12/09 09:03:34;;;;;;;14.17;11.23;;;;;;;1.62;95.73;100221.06;1730672;81;21475;-68
2021/12/09 09:06:01;;;;;;;16.87;11.95;;;;;;;1.61;95.51;100219.87;1728972;82;21035;-68
2021/12/09 09:08:27;;;;;;;18.53;13.10;;;;;;;1.59;95.50;100214.74;1730133;82;22564;-62
2021/12/09 09:10:54;;;;;;;16.10;11.35;;;;;;;1.53;95.16;100206.91;1745327;81;21476;-62
2021/12/09 09:13:23;;;;;;;16.57;11.93;;;;;;;1.48;95.28;100213.04;1735734;80;21032;-62
2021/12/09 09:15:52;;;;;;;15.33;11.63;;;;;;;1.46;95.36;100208.41;1742818;82;21504;-63
2021/12/09 09:18:19;;;;;;;15.90;11.37;;;;;;;1.43;95.46;100205.20;1711989;83;21012;-61
2021/12/09 09:20:47;;;;;;;19.30;14.43;;;;;;;1.40;95.61;100203.69;1720737;82;21082;-61
2021/12/09 09:23:18;;;;;;;20.13;16.00;;;;;;;1.42;95.90;100210.13;1718542;83;21073;-62
2021/12/09 09:25:45;;;;;;;20.30;15.53;;;;;;;1.44;96.09;100216.08;1712762;83;21102;-61
2021/12/09 09:28:12;;;;;;;15.13;13.47;;;;;;;1.45;96.15;100217.72;1712072;83;21062;-62
2021/12/09 09:30:45;;;;;;;18.70;12.23;;;;;;;1.45;96.01;100213.33;1720133;83;21038;-61
2021/12/09 09:33:13;;;;;;;13.93;10.33;;;;;;;1.46;96.14;100213.66;1714424;81;21046;-61
2021/12/09 09:35:43;;;;;;;15.43;10.10;;;;;;;1.48;96.20;100218.30;1668238;84;21110;-63
2021/12/09 09:38:10;;;;;;;18.10;12.70;;;;;;;1.52;96.28;100214.92;1673816;84;21184;-61
2021/12/09 09:41:02;;;;;;;15.20;10.97;;;;;;;1.55;96.35;100219.92;1679359;83;21050;-62
2021/12/09 09:43:32;;;;;;;15.40;11.23;;;;;;;1.54;95.73;100215.16;1674055;84;21666;-62
2021/12/09 09:46:01;;;;;;;14.00;10.43;;;;;;;1.50;95.68;100216.85;1698130;83;21010;-61
2021/12/09 09:48:29;;;;;;;18.33;11.70;;;;;;;1.46;95.74;100218.91;1696886;83;21602;-63
2021/12/09 09:50:59;;;;;;;15.07;10.83;;;;;;;1.46;96.04;100205.78;1701258;83;21018;-60
2021/12/09 09:53:27;;;;;;;17.97;12.03;;;;;;;1.47;95.74;100214.02;1690829;83;21434;-61
2021/12/09 09:55:54;;;;;;;14.20;10.80;;;;;;;1.46;95.52;100207.09;1695650;83;20987;-61
2021/12/09 09:58:21;;;;;;;15.80;11.43;;;;;;;1.42;95.63;100208.33;1706994;82;21106;-61
2021/12/09 10:00:48;;;;;;;11.83;9.07;;;;;;;1.41;95.93;100211.91;1697065;82;20979;-62
2021/12/09 10:03:17;;;;;;;;;;;;;;;1.45;95.98;100212.47;1703418;83;21494;-61
2021/12/09 10:05:49;;;;;;;13.67;9.60;;;;;;;1.42;95.75;100214.06;1683905;83;20110;-63
2021/12/09 10:08:18;;;;;;;14.47;10.13;;;;;;;1.35;95.93;100209.32;1669113;84;21066;-61
2021/12/09 10:10:47;;;;;;;12.17;9.43;;;;;;;1.37;96.28;100214.45;1673140;84;21091;-62
2021/12/09 10:13:18;;;;;;;16.33;11.10;;;;;;;1.36;96.19;100214.94;1684674;83;21020;-63
2021/12/09 10:15:51;;;;;;;14.90;11.00;;;;;;;1.33;96.10;100213.87;1695797;82;21090;-62
2021/12/09 10:18:39;;;;;;;14.83;10.00;;;;;;;1.34;96.38;100209.48;1704488;82;21655;-63
2021/12/09 10:21:08;;;;;;;13.20;11.23;;;;;;;1.43;96.73;100211.77;1708683;82;21522;-60
2021/12/09 10:23:44;;;;;;;11.77;9.47;;;;;;;1.49;96.77;100209.95;1679258;83;21053;-62
2021/12/09 10:26:19;;;;;;;14.30;10.23;;;;;;;1.50;96.15;100214.23;1675730;84;21034;-61
2021/12/09 10:28:52;;;;;;;15.67;11.50;;;;;;;1.46;96.07;100211.52;1675882;84;21149;-62
2021/12/09 10:31:34;;;;;;;13.77;10.23;;;;;;;1.44;96.31;100215.59;1676175;84;21478;-62
2021/12/09 10:37:01;;;;;;;14.70;11.10;;;;;;;1.53;96.44;100227.11;1687564;83;21010;-61
2021/12/09 10:40:02;;;;;;;13.97;9.97;;;;;;;1.49;95.85;100223.09;1681981;83;21053;-63
2021/12/09 10:42:39;;;;;;;13.80;10.47;;;;;;;1.46;96.09;100231.22;1667233;85;21140;-59
2021/12/09 10:45:21;;;;;;;14.38;11.15;;;;;;;1.42;95.99;100229.83;1655564;85;21032;-61
2021/12/09 10:53:35;;;;;;;14.80;10.93;;;;;;;1.50;96.56;100233.92;1676268;84;21060;-60
2021/12/09 10:56:10;;;;;;;16.47;11.90;;;;;;;1.55;96.53;100233.06;1661850;84;21499;-61
2021/12/09 10:58:44;;;;;;;18.93;12.63;;;;;;;1.56;96.34;100232.08;1660836;85;21318;-61
2021/12/09 11:01:20;;;;;;;18.10;11.93;;;;;;;1.59;96.41;100226.56;1650765;85;21018;-61
2021/12/09 11:04:00;;;;;;;19.55;12.00;;;;;;;1.63;96.37;100230.59;1665726;84;21005;-62
2021/12/09 11:06:39;;;;;;;19.57;13.20;;;;;;;1.67;96.39;100226.72;1623501;86;21132;-62
2021/12/09 11:09:11;;;;;;;21.17;12.27;;;;;;;1.71;96.41;100232.09;1661866;84;21041;-61
2021/12/09 11:11:42;;;;;;;15.93;12.30;;;;;;;1.77;96.34;100237.75;1640370;85;21053;-62
2021/12/09 11:14:17;;;;;;;20.13;14.97;;;;;;;1.79;96.24;100239.30;1667774;85;21088;-61
2021/12/09 11:16:51;;;;;;;21.80;14.40;;;;;;;1.81;96.02;100237.83;1661952;85;21038;-62
2021/12/09 11:22:07;;;;;;;19.63;13.50;;;;;;;1.76;95.34;100227.73;1656411;85;21052;-60
2021/12/09 11:24:40;;;;;;;15.90;12.03;;;;;;;1.68;95.01;100227.09;1634341;86;21030;-61
2021/12/09 11:27:09;;;;;;;15.47;12.47;;;;;;;1.61;95.22;100222.01;1633397;86;21124;-61
2021/12/09 11:29:51;;;;;;;18.00;13.67;;;;;;;1.59;95.36;100227.06;1644927;85;21033;-61
2021/12/09 11:35:12;;;;;;;14.30;10.97;;;;;;;1.57;95.50;100221.11;1657593;83;21026;-60
2021/12/09 11:37:41;;;;;;;14.33;10.50;;;;;;;1.53;95.59;100223.16;1626909;86;21062;-61
2021/12/09 11:40:23;;;;;;;13.80;9.67;;;;;;;1.49;95.70;100219.97;1628497;86;21025;-61
2021/12/09 11:43:00;;;;;;;15.53;10.60;;;;;;;1.49;95.96;100222.59;1652649;85;21099;-60
2021/12/09 11:45:34;;;;;;;19.23;13.93;;;;;;;1.47;95.82;100224.98;1652938;85;21607;-61
2021/12/09 11:48:03;;;;;;;18.87;13.73;;;;;;;1.44;96.03;100221.33;1632969;86;21110;-61
2021/12/09 11:50:34;;;;;;;14.40;11.23;;;;;;;1.48;96.40;100231.42;1607323;88;21014;-61
2021/12/09 11:53:06;;;;;;;22.47;14.03;;;;;;;1.48;96.32;100232.74;1635770;86;21103;-64
2021/12/09 11:55:39;;;;;;;20.17;12.63;;;;;;;1.52;96.50;100233.31;1665344;83;20998;-62